Time;durP1;ratioP1;P1;durP2;ratioP2;P2;SDS_P1;SDS_P2;PMS_P1;PMS_P2;Temp;Humidity;BMP_temperature;BMP_pressure;BME280_temperature;BME280_humidity;BME280_pressure;Samples;Min_cycle;Max_cycle;Signal;HPM_P1;HPM_P2
2021/11/10 00:00:36;;;;;;;19.20;8.02;;;;;;;2.57;86.54;102332.81;4926377;28;20043;-75
2021/11/10 00:03:02;;;;;;;19.50;7.78;;;;;;;2.54;86.74;102326.06;5007300;28;20048;-75
2021/11/10 00:05:27;;;;;;;17.40;7.40;;;;;;;2.53;87.07;102321.88;4919895;28;20048;-75
2021/11/10 00:07:54;;;;;;;22.67;8.88;;;;;;;2.52;86.81;102323.59;4996302;28;20040;-75
2021/11/10 00:10:19;;;;;;;19.88;8.02;;;;;;;2.52;86.89;102320.19;5023339;28;20169;-75
2021/11/10 00:12:46;;;;;;;19.77;9.07;;;;;;;2.51;86.96;102313.41;5006295;28;20047;-75
2021/11/10 00:15:12;;;;;;;19.35;7.80;;;;;;;2.48;86.88;102314.38;4958168;28;20118;-75
2021/11/10 00:17:38;;;;;;;20.38;8.75;;;;;;;2.48;86.92;102309.25;5006154;28;20032;-75
2021/11/10 00:20:07;;;;;;;17.83;8.10;;;;;;;2.45;86.81;102300.84;5017250;28;20049;-75
2021/11/10 00:22:33;;;;;;;16.42;8.25;;;;;;;2.43;86.81;102298.38;4989935;28;20552;-75
2021/11/10 00:24:59;;;;;;;18.35;8.82;;;;;;;2.44;86.80;102294.09;5004431;28;20059;-74
2021/11/10 00:27:25;;;;;;;20.38;8.93;;;;;;;2.42;87.05;102286.47;4992637;28;20430;-75
2021/11/10 00:29:50;;;;;;;17.60;8.25;;;;;;;2.40;86.63;102290.81;5005667;28;20034;-75
2021/11/10 00:32:16;;;;;;;19.23;8.60;;;;;;;2.38;86.75;102295.19;5009080;28;20035;-75
2021/11/10 00:34:42;;;;;;;16.83;7.93;;;;;;;2.38;86.73;102304.59;5002499;28;20050;-75
2021/11/10 00:37:09;;;;;;;16.38;8.93;;;;;;;2.38;86.72;102304.59;5012451;28;20039;-75
2021/11/10 00:39:35;;;;;;;16.98;8.98;;;;;;;2.36;86.78;102303.84;5002200;28;20549;-75
2021/11/10 00:42:00;;;;;;;19.30;8.35;;;;;;;2.35;86.96;102313.22;5020946;28;20035;-75
2021/11/10 00:44:26;;;;;;;21.85;8.40;;;;;;;2.30;86.96;102315.19;5030203;28;20348;-75
2021/11/10 00:46:51;;;;;;;27.85;9.70;;;;;;;2.39;88.50;102306.25;4929564;28;20027;-75
2021/11/10 00:49:17;;;;;;;21.58;9.52;;;;;;;2.45;89.74;102308.53;5027893;28;20039;-75
2021/11/10 00:51:43;;;;;;;20.13;8.85;;;;;;;2.42;90.03;102317.19;5004324;28;20089;-75
2021/11/10 00:54:08;;;;;;;23.50;10.48;;;;;;;2.38;90.12;102317.41;5016344;28;20040;-74
2021/11/10 00:56:35;;;;;;;22.75;10.25;;;;;;;2.39;89.98;102303.69;4929534;28;20040;-75
2021/11/10 00:59:01;;;;;;;23.88;8.23;;;;;;;2.38;90.16;102299.47;4935584;28;20046;-75
2021/11/10 01:01:26;;;;;;;21.48;9.23;;;;;;;2.30;90.21;102300.63;5009631;28;20038;-75
2021/11/10 01:03:52;;;;;;;24.70;9.27;;;;;;;2.36;90.46;102289.31;5008230;28;20043;-75
2021/11/10 01:06:18;;;;;;;20.25;8.43;;;;;;;2.33;90.80;102284.31;5008572;28;20040;-74
2021/11/10 01:08:43;;;;;;;21.92;8.73;;;;;;;2.27;90.97;102293.06;5004614;28;20039;-75
2021/11/10 01:11:09;;;;;;;20.63;8.98;;;;;;;2.24;90.93;102300.06;4985913;28;20459;-75
2021/11/10 01:13:35;;;;;;;22.67;8.73;;;;;;;2.26;90.90;102304.22;5003186;28;20035;-75
2021/11/10 01:16:02;;;;;;;24.40;9.55;;;;;;;2.28;91.05;102292.19;4999229;28;22269;-75
2021/11/10 01:18:28;;;;;;;20.73;8.48;;;;;;;2.24;91.50;102284.69;5005897;28;20407;-74
2021/11/10 01:20:59;;;;;;;24.45;9.05;;;;;;;2.20;91.28;102281.44;5007520;28;20027;-75
2021/11/10 01:23:25;;;;;;;21.05;9.63;;;;;;;2.28;91.37;102281.09;5016649;28;20027;-75
2021/11/10 01:25:51;;;;;;;20.85;8.25;;;;;;;2.22;91.32;102276.25;5018539;28;20027;-75
2021/11/10 01:28:16;;;;;;;21.65;9.20;;;;;;;2.16;91.38;102277.34;4987307;28;20044;-75
2021/11/10 01:30:42;;;;;;;23.65;8.68;;;;;;;2.11;91.67;102280.13;4974403;28;20038;-75
2021/11/10 01:33:10;;;;;;;16.15;8.52;;;;;;;2.10;91.84;102285.28;4998083;28;20035;-75
2021/11/10 01:35:35;;;;;;;21.30;9.63;;;;;;;2.11;91.39;102279.25;4981804;28;20035;-75
2021/11/10 01:38:01;;;;;;;17.95;7.85;;;;;;;2.07;91.33;102270.06;5000884;28;20039;-74
2021/11/10 01:40:30;;;;;;;20.40;9.02;;;;;;;2.04;91.34;102265.91;5021025;28;20062;-75
2021/11/10 01:42:56;;;;;;;21.80;8.82;;;;;;;2.03;91.55;102271.09;4985520;28;20033;-75
2021/11/10 01:45:23;;;;;;;20.55;9.13;;;;;;;2.01;91.66;102271.16;4990593;28;20085;-74
2021/11/10 01:47:51;;;;;;;22.38;8.63;;;;;;;2.00;91.42;102260.97;4944804;28;20500;-75
2021/11/10 01:50:19;;;;;;;19.92;9.38;;;;;;;1.99;91.20;102265.25;4933295;28;20036;-74
2021/11/10 01:52:46;;;;;;;18.92;8.60;;;;;;;1.92;91.33;102264.69;5001806;28;20050;-75
2021/11/10 01:55:14;;;;;;;24.48;8.88;;;;;;;1.90;91.26;102251.16;4992551;28;20092;-75
2021/11/10 01:57:44;;;;;;;23.33;9.73;;;;;;;1.88;91.35;102249.53;5017298;28;20023;-75
2021/11/10 02:00:23;;;;;;;20.30;8.00;;;;;;;1.88;91.54;102242.69;5011547;28;22555;-75
2021/11/10 02:02:57;;;;;;;20.10;9.75;;;;;;;1.88;91.41;102245.22;4932632;28;20067;-75
2021/11/10 02:05:52;;;;;;;20.33;8.27;;;;;;;1.88;90.99;102241.84;4987996;28;20543;-75
2021/11/10 02:08:36;;;;;;;20.15;8.70;;;;;;;1.86;90.71;102236.78;4935044;28;20048;-75
2021/11/10 02:11:10;;;;;;;24.38;8.75;;;;;;;1.84;90.68;102233.47;5017222;28;20043;-75
2021/11/10 02:13:43;;;;;;;17.05;7.72;;;;;;;1.83;90.60;102228.41;5006282;28;20491;-75
2021/11/10 02:16:09;;;;;;;17.55;8.02;;;;;;;1.82;90.33;102232.72;5005153;28;20038;-75
2021/11/10 02:18:37;;;;;;;18.17;8.43;;;;;;;1.82;90.36;102235.25;4968492;28;20031;-75
2021/11/10 02:21:08;;;;;;;16.42;8.38;;;;;;;1.81;89.97;102235.31;4999394;28;20089;-75
2021/11/10 02:23:33;;;;;;;22.42;9.02;;;;;;;1.78;89.41;102232.91;5011176;28;20089;-74
2021/11/10 02:26:02;;;;;;;19.27;9.18;;;;;;;1.73;89.58;102238.22;5017359;28;20039;-75
2021/11/10 02:28:28;;;;;;;25.52;9.88;;;;;;;1.74;89.78;102239.88;5020282;28;20081;-75
2021/11/10 02:30:54;;;;;;;19.27;8.65;;;;;;;1.73;89.89;102228.81;5000111;28;20283;-75
2021/11/10 02:33:28;;;;;;;21.17;10.02;;;;;;;1.68;90.38;102233.28;4972648;28;20032;-75
2021/11/10 02:36:02;;;;;;;20.38;8.68;;;;;;;1.68;90.29;102230.72;4995034;28;20130;-75
2021/11/10 02:38:28;;;;;;;22.67;9.82;;;;;;;1.74;90.77;102240.69;5003974;28;20043;-75
2021/11/10 02:40:57;;;;;;;23.80;9.10;;;;;;;1.70;90.86;102234.06;4968586;28;20097;-75
2021/11/10 02:43:23;;;;;;;23.15;9.45;;;;;;;1.68;90.83;102233.28;4984364;28;20035;-75
2021/11/10 02:45:49;;;;;;;19.58;8.90;;;;;;;1.68;90.84;102229.91;4984302;28;20066;-75
2021/11/10 02:48:16;;;;;;;17.50;8.68;;;;;;;1.68;91.34;102237.59;5018798;28;20023;-75
2021/11/10 02:50:41;;;;;;;19.70;8.88;;;;;;;1.67;91.30;102241.84;4980529;28;20024;-75
2021/11/10 02:53:07;;;;;;;20.88;8.93;;;;;;;1.65;91.20;102260.72;4985349;28;20551;-75
2021/11/10 02:55:33;;;;;;;20.85;9.38;;;;;;;1.62;91.37;102250.59;5004911;28;20054;-75
2021/11/10 02:57:59;;;;;;;16.40;8.13;;;;;;;1.62;91.04;102254.00;4981515;28;20497;-75
2021/11/10 03:00:26;;;;;;;17.17;8.07;;;;;;;1.62;91.35;102265.94;5010192;28;20069;-75
2021/11/10 03:02:54;;;;;;;22.00;9.40;;;;;;;1.61;91.08;102267.69;5007344;28;20102;-75
2021/11/10 03:05:25;;;;;;;21.58;8.25;;;;;;;1.58;90.76;102260.13;4932617;28;20165;-75
2021/11/10 03:07:51;;;;;;;23.00;8.63;;;;;;;1.58;90.81;102252.44;5002663;28;20036;-75
2021/11/10 03:10:18;;;;;;;18.92;8.18;;;;;;;1.59;90.68;102260.97;5018690;28;20051;-75
2021/11/10 03:12:44;;;;;;;15.38;7.57;;;;;;;1.60;90.89;102262.63;5006532;28;20448;-75
2021/11/10 03:15:12;;;;;;;23.67;9.05;;;;;;;1.59;90.33;102255.84;5018604;28;20180;-75
2021/11/10 03:17:38;;;;;;;14.77;7.45;;;;;;;1.58;90.68;102252.44;5024411;28;20473;-75
2021/11/10 03:20:05;;;;;;;22.83;8.60;;;;;;;1.57;90.04;102248.25;5023751;28;20045;-75
2021/11/10 03:22:35;;;;;;;15.77;9.18;;;;;;;1.55;90.34;102255.16;5024084;28;20086;-75
2021/11/10 03:25:00;;;;;;;15.48;8.43;;;;;;;1.56;90.06;102251.69;5002559;28;20028;-75
2021/11/10 03:27:27;;;;;;;16.63;8.00;;;;;;;1.54;89.77;102253.47;5006061;28;20035;-75
2021/11/10 03:29:57;;;;;;;18.45;8.25;;;;;;;1.53;89.66;102252.66;5005272;28;20027;-75
2021/11/10 03:32:25;;;;;;;18.52;8.30;;;;;;;1.51;89.53;102249.31;5021179;28;20035;-75
2021/11/10 03:34:53;;;;;;;18.23;8.55;;;;;;;1.50;89.64;102252.75;5006343;28;20094;-75
2021/11/10 03:37:25;;;;;;;16.65;8.60;;;;;;;1.50;89.69;102264.72;5023613;28;20042;-75
2021/11/10 03:39:51;;;;;;;21.40;8.95;;;;;;;1.57;89.37;102271.25;5006674;28;20031;-75
2021/11/10 03:42:17;;;;;;;24.60;9.15;;;;;;;1.59;90.14;102263.53;4926797;28;20035;-75
2021/11/10 03:44:43;;;;;;;18.98;8.55;;;;;;;1.50;90.50;102264.72;5004707;28;20070;-75
2021/11/10 03:47:08;;;;;;;26.65;9.43;;;;;;;1.55;91.14;102260.25;5007378;28;20564;-75
2021/11/10 03:49:36;;;;;;;26.83;9.57;;;;;;;1.52;91.64;102263.75;4964447;28;20034;-75
2021/11/10 03:52:03;;;;;;;25.00;9.48;;;;;;;1.48;91.93;102263.94;4988570;28;20043;-75
2021/11/10 03:54:29;;;;;;;25.40;9.02;;;;;;;1.48;91.69;102266.50;4997540;28;20456;-75
2021/11/10 03:56:55;;;;;;;21.80;9.27;;;;;;;1.43;92.19;102259.03;5016215;28;20086;-75
2021/11/10 03:59:20;;;;;;;16.00;8.32;;;;;;;1.40;92.19;102261.69;5019142;28;20044;-75
2021/11/10 04:01:49;;;;;;;17.92;8.63;;;;;;;1.38;92.00;102257.56;5006303;28;20181;-75
2021/11/10 04:04:14;;;;;;;20.42;9.40;;;;;;;1.36;92.03;102257.59;5004388;28;20258;-75
2021/11/10 04:06:40;;;;;;;25.55;8.93;;;;;;;1.35;91.87;102256.75;5003397;28;20031;-75
2021/11/10 04:09:06;;;;;;;17.73;8.20;;;;;;;1.34;91.85;102256.84;4988963;28;20028;-75
2021/11/10 04:11:33;;;;;;;19.00;7.38;;;;;;;1.31;91.82;102245.00;5000152;28;20033;-75
2021/11/10 04:13:59;;;;;;;22.52;8.82;;;;;;;1.30;91.45;102235.69;4990410;28;20105;-75
2021/11/10 04:16:26;;;;;;;20.33;7.88;;;;;;;1.27;91.49;102237.53;5014893;28;20033;-75
2021/11/10 04:18:55;;;;;;;16.85;7.40;;;;;;;1.24;91.06;102240.19;5007396;28;20042;-75
2021/11/10 04:21:24;;;;;;;16.67;7.90;;;;;;;1.23;90.92;102241.09;5027940;28;20064;-75
2021/11/10 04:23:53;;;;;;;20.88;9.13;;;;;;;1.21;90.65;102245.44;5027687;28;20032;-75
2021/11/10 04:26:23;;;;;;;15.88;8.23;;;;;;;1.19;90.84;102250.59;5004517;28;20086;-75
2021/11/10 04:28:49;;;;;;;21.35;8.02;;;;;;;1.17;90.62;102245.53;5009256;28;20028;-75
2021/11/10 04:31:15;;;;;;;21.42;8.13;;;;;;;1.17;90.37;102260.88;5026708;28;20131;-75
2021/11/10 04:33:42;;;;;;;20.15;8.65;;;;;;;1.19;90.07;102270.19;4959744;28;20039;-74
2021/11/10 04:36:09;;;;;;;19.00;8.40;;;;;;;1.17;90.15;102270.28;5025484;28;20038;-75
2021/11/10 04:38:37;;;;;;;22.40;9.27;;;;;;;1.15;89.60;102267.78;4978592;28;20030;-75
2021/11/10 04:41:03;;;;;;;24.38;9.07;;;;;;;1.12;89.55;102270.44;5002902;28;20036;-74
2021/11/10 04:43:29;;;;;;;19.88;9.63;;;;;;;1.11;89.54;102260.28;5024116;28;20059;-75
2021/11/10 04:48:54;;;;;;;16.52;7.72;;;;;;;0.99;89.39;102260.75;4969128;28;20051;-75
2021/11/10 04:51:22;;;;;;;21.85;7.57;;;;;;;0.96;89.88;102266.78;5002145;28;20429;-75
2021/11/10 04:53:48;;;;;;;18.45;7.78;;;;;;;0.93;89.58;102261.81;5006975;28;20504;-75
2021/11/10 04:56:14;;;;;;;16.73;8.18;;;;;;;0.92;89.64;102248.22;5009154;28;20039;-75
2021/11/10 04:58:41;;;;;;;17.98;8.18;;;;;;;0.89;89.72;102232.19;5021191;28;20024;-75
2021/11/10 05:01:15;;;;;;;16.88;7.88;;;;;;;0.84;89.19;102219.56;4926823;28;20036;-74
2021/11/10 05:03:40;;;;;;;11.73;7.22;;;;;;;0.79;89.55;102213.78;5008450;28;20036;-74
2021/11/10 05:06:07;;;;;;;14.73;8.07;;;;;;;0.77;89.41;102225.78;5009090;28;20031;-74
2021/11/10 05:08:33;;;;;;;14.25;7.40;;;;;;;0.75;89.57;102230.97;4991428;28;20132;-74
2021/11/10 05:10:58;;;;;;;22.75;8.18;;;;;;;0.73;89.23;102239.56;5020481;28;20488;-75
2021/11/10 05:13:26;;;;;;;16.67;7.97;;;;;;;0.71;89.33;102234.50;4973339;28;20028;-74
2021/11/10 05:15:52;;;;;;;16.13;7.20;;;;;;;0.67;89.47;102220.19;5004523;28;20492;-74
2021/11/10 05:18:18;;;;;;;21.25;8.07;;;;;;;0.65;89.62;102221.16;5008169;28;20027;-74
2021/11/10 05:20:44;;;;;;;17.60;7.30;;;;;;;0.65;89.57;102223.69;5004799;28;20082;-74
2021/11/10 05:23:10;;;;;;;18.67;9.50;;;;;;;0.66;89.61;102208.34;4993859;28;20058;-74
2021/11/10 05:25:36;;;;;;;20.17;8.10;;;;;;;0.67;89.59;102209.16;5027337;28;20498;-74
2021/11/10 05:28:02;;;;;;;18.83;8.50;;;;;;;0.67;89.61;102209.97;4986402;28;20095;-74
2021/11/10 05:30:27;;;;;;;15.77;7.55;;;;;;;0.66;89.53;102213.44;4923635;28;20047;-74
2021/11/10 05:32:53;;;;;;;15.95;8.52;;;;;;;0.67;89.88;102215.09;5016671;28;20707;-74
2021/11/10 05:35:18;;;;;;;14.38;7.15;;;;;;;0.65;89.59;102211.75;4927536;28;20036;-74
2021/11/10 05:37:44;;;;;;;16.38;7.72;;;;;;;0.65;89.39;102221.97;4930384;28;20089;-74
2021/11/10 05:40:10;;;;;;;19.50;10.10;;;;;;;0.65;89.09;102231.38;4927580;28;20122;-74
2021/11/10 05:42:36;;;;;;;24.13;12.52;;;;;;;0.65;88.99;102239.03;4977910;28;20078;-74
2021/11/10 05:45:03;;;;;;;20.10;9.98;;;;;;;0.62;89.23;102249.34;5006537;28;20040;-74
2021/11/10 05:47:29;;;;;;;22.55;10.15;;;;;;;0.62;89.23;102262.09;4997633;28;20451;-74
2021/11/10 05:49:54;;;;;;;25.65;13.10;;;;;;;0.60;89.38;102261.31;5008417;28;20040;-74
2021/11/10 05:52:20;;;;;;;22.55;12.25;;;;;;;0.55;89.07;102247.03;5022263;28;20121;-74
2021/11/10 05:54:46;;;;;;;31.60;13.82;;;;;;;0.50;89.51;102240.41;5008846;28;20135;-74
2021/11/10 05:57:14;;;;;;;26.60;14.15;;;;;;;0.44;89.67;102233.81;5008246;28;20532;-74
2021/11/10 05:59:41;;;;;;;27.77;12.55;;;;;;;0.41;89.60;102238.19;4930875;28;20029;-74
2021/11/10 06:02:07;;;;;;;17.42;9.07;;;;;;;0.38;89.56;102245.06;4988412;28;20484;-74
2021/11/10 06:04:33;;;;;;;17.00;7.70;;;;;;;0.39;89.84;102241.63;4991958;28;20047;-74
2021/11/10 06:06:58;;;;;;;29.25;9.80;;;;;;;0.39;89.50;102235.69;5002590;28;20552;-74
2021/11/10 06:09:24;;;;;;;21.77;13.00;;;;;;;0.38;89.85;102234.88;5004976;28;20032;-74
2021/11/10 06:11:50;;;;;;;28.17;16.13;;;;;;;0.39;89.57;102231.41;5007487;28;20090;-74
2021/11/10 06:14:16;;;;;;;26.42;17.33;;;;;;;0.41;89.24;102225.44;5008451;28;20044;-74
2021/11/10 06:16:41;;;;;;;35.63;16.73;;;;;;;0.42;89.64;102225.38;5016364;28;20453;-74
2021/11/10 06:19:06;;;;;;;24.70;13.98;;;;;;;0.42;89.58;102234.75;5008375;28;20539;-74
2021/11/10 06:21:32;;;;;;;26.85;12.38;;;;;;;0.39;89.36;102236.50;5008066;28;20131;-74
2021/11/10 06:23:58;;;;;;;23.65;12.30;;;;;;;0.39;89.85;102231.41;5007979;28;20042;-74
2021/11/10 06:26:24;;;;;;;21.00;11.48;;;;;;;0.39;89.61;102243.34;4985820;28;20039;-74
2021/11/10 06:28:49;;;;;;;21.27;10.20;;;;;;;0.41;89.82;102240.75;4922545;28;20031;-74
2021/11/10 06:31:15;;;;;;;22.02;11.27;;;;;;;0.38;89.23;102229.75;4988038;28;20518;-75
2021/11/10 06:33:41;;;;;;;19.70;10.77;;;;;;;0.38;89.57;102227.22;4922981;28;20028;-74
2021/11/10 06:36:06;;;;;;;20.33;9.95;;;;;;;0.38;89.48;102234.03;5008760;28;20039;-74
2021/11/10 06:38:32;;;;;;;18.50;9.73;;;;;;;0.36;89.49;102239.19;5022017;28;20058;-74
2021/11/10 06:40:58;;;;;;;19.33;9.02;;;;;;;0.36;89.31;102231.53;4925251;28;20516;-74
2021/11/10 06:43:25;;;;;;;15.82;9.48;;;;;;;0.36;89.64;102221.31;4921218;28;20043;-74
2021/11/10 06:45:52;;;;;;;20.85;9.85;;;;;;;0.33;88.99;102221.44;4925718;28;20032;-74
2021/11/10 06:48:17;;;;;;;17.85;8.40;;;;;;;0.32;89.34;102206.16;5022524;28;20070;-74
2021/11/10 06:50:43;;;;;;;20.50;8.75;;;;;;;0.29;89.20;102202.00;4985801;28;20035;-74
2021/11/10 06:53:09;;;;;;;19.15;9.15;;;;;;;0.26;89.55;102209.75;5010042;28;20055;-75
2021/11/10 06:55:35;;;;;;;22.67;8.90;;;;;;;0.28;89.81;102207.16;4990841;28;20031;-74
2021/11/10 06:58:01;;;;;;;22.48;9.07;;;;;;;0.27;89.14;102191.03;4944204;28;20097;-73
2021/11/10 07:00:26;;;;;;;16.70;8.05;;;;;;;0.28;89.27;102208.00;4923786;28;20082;-74
2021/11/10 07:02:52;;;;;;;18.75;8.63;;;;;;;0.30;89.46;102207.94;5024262;28;20375;-73
2021/11/10 07:05:17;;;;;;;20.15;9.30;;;;;;;0.29;89.81;102213.94;5007548;28;20101;-74
2021/11/10 07:07:43;;;;;;;18.75;8.75;;;;;;;0.30;89.55;102231.75;5007586;28;20035;-74
2021/11/10 07:10:08;;;;;;;16.75;8.77;;;;;;;0.27;90.28;102241.25;5004612;28;20482;-74
2021/11/10 07:12:34;;;;;;;21.65;8.65;;;;;;;0.28;90.32;102248.00;4988783;28;20078;-74
2021/11/10 07:14:59;;;;;;;19.63;9.35;;;;;;;0.28;90.42;102250.53;5005983;28;20031;-75
2021/11/10 07:17:25;;;;;;;21.17;10.63;;;;;;;0.28;91.15;102256.47;5007242;28;20507;-74
2021/11/10 07:19:53;;;;;;;31.67;11.02;;;;;;;0.35;91.40;102264.75;5005007;28;20488;-75
2021/11/10 07:22:20;;;;;;;25.48;12.55;;;;;;;0.51;92.04;102259.94;4922164;28;20063;-74
2021/11/10 07:24:46;;;;;;;25.17;11.38;;;;;;;0.45;92.59;102253.31;4925145;28;20435;-74
2021/11/10 07:27:12;;;;;;;29.38;12.98;;;;;;;0.48;92.47;102255.78;4925284;28;20396;-74
2021/11/10 07:29:38;;;;;;;24.20;10.32;;;;;;;0.48;92.40;102253.22;4990807;28;20039;-74
2021/11/10 07:32:04;;;;;;;25.25;10.57;;;;;;;0.44;92.56;102264.44;4924152;28;20043;-74
2021/11/10 07:34:30;;;;;;;26.65;11.57;;;;;;;0.41;92.99;102256.88;4921356;28;20097;-73
2021/11/10 07:36:55;;;;;;;20.20;11.90;;;;;;;0.42;92.92;102266.22;5006569;28;20040;-74
2021/11/10 07:39:21;;;;;;;29.75;13.77;;;;;;;0.42;92.94;102273.88;5003295;28;20036;-74
2021/11/10 07:41:49;;;;;;;72.43;34.88;;;;;;;0.44;93.01;102273.81;5011310;28;20447;-75
2021/11/10 07:44:15;;;;;;;53.65;27.45;;;;;;;0.44;93.35;102278.94;5019121;28;20054;-74
2021/11/10 07:46:50;;;;;;;51.58;26.08;;;;;;;0.44;93.00;102289.97;5003852;28;20477;-74
2021/11/10 07:49:21;;;;;;;150.38;77.35;;;;;;;0.47;93.13;102284.75;5006630;28;20161;-74
2021/11/10 07:51:46;;;;;;;97.53;47.35;;;;;;;0.50;93.54;102289.75;5018099;28;20048;-74
2021/11/10 07:54:13;;;;;;;44.72;20.50;;;;;;;0.53;93.16;102301.59;5005170;28;20032;-73
2021/11/10 07:56:38;;;;;;;52.13;23.63;;;;;;;0.57;93.64;102298.84;4971561;28;20429;-74
2021/11/10 07:59:04;;;;;;;81.22;32.60;;;;;;;0.65;93.57;102315.63;4997065;28;20043;-73
2021/11/10 08:01:32;;;;;;;52.60;26.25;;;;;;;0.68;93.60;102318.03;4949946;28;20480;-74
2021/11/10 08:04:02;;;;;;;50.28;25.85;;;;;;;0.73;93.86;102318.72;4988279;28;20104;-75
2021/11/10 08:06:28;;;;;;;57.75;32.92;;;;;;;0.80;93.65;102319.34;5008424;28;20028;-74
2021/11/10 08:08:53;;;;;;;60.10;31.95;;;;;;;0.82;94.13;102312.47;4927792;28;20039;-74
2021/11/10 08:11:19;;;;;;;36.50;16.73;;;;;;;0.92;94.02;102324.84;4918519;28;20036;-76
2021/11/10 08:13:44;;;;;;;38.22;15.43;;;;;;;1.14;93.88;102317.19;5006804;28;20040;-76
2021/11/10 08:16:10;;;;;;;29.38;13.43;;;;;;;1.20;94.12;102308.47;5003821;28;20090;-75
2021/11/10 08:18:35;;;;;;;28.85;13.25;;;;;;;1.28;94.07;102303.91;5018270;28;20039;-75
2021/11/10 08:21:01;;;;;;;32.10;11.85;;;;;;;1.47;93.74;102304.03;5003518;28;20399;-75
2021/11/10 08:23:27;;;;;;;26.58;12.07;;;;;;;1.64;93.66;102297.41;4922628;28;20030;-75
2021/11/10 08:25:55;;;;;;;25.60;12.40;;;;;;;1.89;93.10;102295.53;4980943;28;20028;-76
2021/11/10 08:28:21;;;;;;;25.27;11.68;;;;;;;2.05;92.43;102293.16;4984481;28;20036;-75
2021/11/10 08:30:47;;;;;;;22.27;12.10;;;;;;;2.23;92.06;102286.44;4996166;28;20051;-76
2021/11/10 08:33:12;;;;;;;25.23;12.23;;;;;;;2.36;91.05;102294.44;4923829;28;20471;-75
2021/11/10 08:35:38;;;;;;;22.27;11.27;;;;;;;2.38;90.92;102300.31;4918985;28;20024;-75
2021/11/10 08:38:04;;;;;;;25.35;11.25;;;;;;;2.37;90.03;102300.38;5006195;28;20330;-75
2021/11/10 08:40:30;;;;;;;27.55;11.07;;;;;;;2.33;90.18;102302.22;4956333;28;20098;-76
2021/11/10 08:42:56;;;;;;;24.30;11.35;;;;;;;2.31;89.99;102301.47;4973226;28;20439;-75
2021/11/10 08:45:29;;;;;;;29.27;11.20;;;;;;;2.39;90.33;102319.88;4919303;28;20036;-76
2021/11/10 08:47:57;;;;;;;31.90;12.35;;;;;;;2.43;89.98;102307.78;4990029;28;20039;-76
2021/11/10 08:50:26;;;;;;;31.08;13.15;;;;;;;2.58;90.00;102306.28;4949901;28;20189;-76
2021/11/10 08:52:53;;;;;;;29.02;12.43;;;;;;;2.62;89.65;102307.81;5004689;28;20088;-75
2021/11/10 08:55:19;;;;;;;26.90;10.85;;;;;;;2.64;89.97;102306.03;5022617;28;20114;-75
2021/11/10 08:57:49;;;;;;;20.67;10.88;;;;;;;2.59;90.27;102311.34;4915445;28;20066;-75
2021/11/10 09:00:19;;;;;;;33.88;11.57;;;;;;;2.62;90.89;102318.03;4996660;28;20122;-75
2021/11/10 09:02:45;;;;;;;31.38;11.50;;;;;;;2.62;90.47;102316.34;5001666;28;20095;-75
2021/11/10 09:05:11;;;;;;;24.67;10.70;;;;;;;2.63;91.11;102307.75;4950545;28;20035;-75
2021/11/10 09:07:37;;;;;;;24.20;12.60;;;;;;;2.64;91.06;102299.16;5016754;28;20035;-76
2021/11/10 09:10:05;;;;;;;28.58;10.35;;;;;;;2.73;90.62;102303.03;5009618;28;20201;-76
2021/11/10 09:12:30;;;;;;;22.90;9.80;;;;;;;2.78;90.84;102297.72;4925132;28;20058;-76
2021/11/10 09:14:56;;;;;;;26.13;11.25;;;;;;;2.82;91.08;102294.94;4952907;28;20429;-76
2021/11/10 09:17:21;;;;;;;23.20;11.07;;;;;;;2.86;90.44;102288.81;4999237;28;20433;-76
2021/11/10 09:19:47;;;;;;;23.20;10.60;;;;;;;2.90;89.95;102289.47;4927486;28;20074;-75
2021/11/10 09:22:13;;;;;;;27.20;10.38;;;;;;;3.06;89.54;102287.88;5020659;28;20043;-76
2021/11/10 09:24:38;;;;;;;24.45;10.90;;;;;;;3.07;89.34;102279.31;4991823;28;20045;-75
2021/11/10 09:27:05;;;;;;;33.72;10.48;;;;;;;3.19;89.02;102285.59;4927322;28;20090;-76
2021/11/10 09:29:31;;;;;;;27.70;11.00;;;;;;;3.41;88.36;102284.56;5009339;28;20044;-76
2021/11/10 09:31:57;;;;;;;23.50;10.45;;;;;;;3.43;87.96;102287.91;5009321;28;20040;-77
2021/11/10 09:34:23;;;;;;;30.20;11.23;;;;;;;3.48;88.01;102299.59;4923226;28;20093;-76
2021/11/10 09:36:48;;;;;;;25.60;11.25;;;;;;;3.50;87.60;102289.25;5002217;28;20031;-76
2021/11/10 09:39:19;;;;;;;27.83;10.80;;;;;;;3.56;88.02;102288.97;4940044;28;20040;-76
2021/11/10 09:41:50;;;;;;;33.20;11.30;;;;;;;3.56;88.59;102293.25;4968799;28;20028;-75
2021/11/10 09:44:16;;;;;;;29.52;10.85;;;;;;;3.61;89.18;102286.19;5024679;28;20040;-76
2021/11/10 09:46:43;;;;;;;28.00;11.15;;;;;;;3.71;88.34;102284.81;4927582;28;20032;-76
2021/11/10 09:49:10;;;;;;;28.67;10.63;;;;;;;3.93;87.83;102286.34;4993028;28;20065;-77
2021/11/10 09:51:36;;;;;;;27.75;10.85;;;;;;;3.97;86.77;102286.09;4927773;28;20389;-75
2021/11/10 09:54:03;;;;;;;32.17;10.38;;;;;;;4.03;86.99;102283.25;5002866;28;20032;-77
2021/11/10 09:56:31;;;;;;;23.15;10.27;;;;;;;4.14;86.94;102280.09;5003477;28;20054;-76
2021/11/10 09:58:57;;;;;;;26.13;10.90;;;;;;;4.26;86.38;102283.81;4989333;28;20041;-76
2021/11/10 10:01:23;;;;;;;20.75;10.38;;;;;;;4.33;85.33;102280.00;5008632;28;20118;-76
2021/11/10 10:03:55;;;;;;;23.10;9.95;;;;;;;4.41;85.75;102277.88;4995673;28;20170;-77
2021/11/10 10:06:21;;;;;;;26.88;10.07;;;;;;;4.60;84.46;102279.50;4927696;28;20404;-77
2021/11/10 10:08:47;;;;;;;25.13;11.05;;;;;;;4.63;85.08;102279.31;5014537;28;20091;-77
2021/11/10 10:11:15;;;;;;;27.23;9.90;;;;;;;4.70;84.72;102278.06;5010952;28;20418;-77
2021/11/10 10:13:41;;;;;;;25.10;10.65;;;;;;;4.71;85.05;102276.31;4937758;28;20519;-77
2021/11/10 10:16:08;;;;;;;24.77;10.00;;;;;;;4.78;84.24;102287.94;4968253;28;20027;-77
2021/11/10 10:18:34;;;;;;;23.88;10.60;;;;;;;4.85;84.59;102284.16;4983433;28;20070;-77
2021/11/10 10:21:09;;;;;;;29.83;10.93;;;;;;;4.87;85.06;102290.03;5007979;28;20409;-77
2021/11/10 10:23:40;;;;;;;30.58;10.23;;;;;;;4.98;85.37;102284.31;4921540;28;20050;-77
2021/11/10 10:26:20;;;;;;;24.00;10.05;;;;;;;4.98;85.28;102277.41;5020022;28;20046;-76
2021/11/10 10:28:50;;;;;;;28.13;11.45;;;;;;;5.07;84.73;102281.25;4993025;28;20242;-77
2021/11/10 10:31:21;;;;;;;25.15;10.55;;;;;;;5.28;84.20;102286.13;4936297;28;20102;-77
2021/11/10 10:33:49;;;;;;;23.67;10.32;;;;;;;5.33;84.56;102272.09;4971826;28;20047;-78
2021/11/10 10:36:18;;;;;;;26.25;9.68;;;;;;;5.44;83.40;102282.63;4990639;28;20446;-76
2021/11/10 10:38:51;;;;;;;23.50;8.77;;;;;;;5.74;79.00;102275.78;5004746;28;20044;-78
2021/11/10 10:41:20;;;;;;;25.30;9.05;;;;;;;5.82;78.94;102274.44;4991949;28;20484;-78
2021/11/10 10:43:49;;;;;;;23.90;8.85;;;;;;;5.96;78.18;102276.22;5006507;28;20052;-77
2021/11/10 10:46:17;;;;;;;22.35;9.18;;;;;;;6.00;79.04;102271.72;4932875;28;20046;-77
2021/11/10 10:48:43;;;;;;;22.25;9.25;;;;;;;6.01;80.18;102270.84;5003009;28;20040;-78
2021/11/10 10:51:12;;;;;;;18.33;8.27;;;;;;;6.14;79.36;102274.34;5004864;28;20120;-77
2021/11/10 10:53:48;;;;;;;14.65;7.97;;;;;;;6.26;78.76;102270.19;5001146;28;20489;-78
2021/11/10 10:56:26;;;;;;;21.80;8.77;;;;;;;6.33;77.99;102266.34;5012257;28;20056;-77
2021/11/10 10:58:56;;;;;;;26.40;9.63;;;;;;;6.42;76.67;102281.25;5009191;28;20039;-78
2021/11/10 11:01:28;;;;;;;20.65;8.45;;;;;;;6.37;77.18;102272.13;5007825;28;20039;-77
2021/11/10 11:04:04;;;;;;;19.60;7.75;;;;;;;6.39;78.06;102273.69;5014494;28;20041;-77
2021/11/10 11:06:37;;;;;;;22.42;9.13;;;;;;;6.53;78.17;102269.44;4926751;28;20039;-77
2021/11/10 11:09:12;;;;;;;23.67;9.68;;;;;;;6.47;77.62;102265.47;4923538;28;20032;-77
2021/11/10 11:11:40;;;;;;;30.00;9.15;;;;;;;6.54;76.78;102271.94;5008410;28;20044;-79
2021/11/10 11:14:15;;;;;;;26.63;9.10;;;;;;;6.56;76.17;102271.84;5008710;28;20544;-77
2021/11/10 11:16:43;;;;;;;17.35;8.40;;;;;;;6.56;77.05;102269.25;5014760;28;20032;-77
2021/11/10 11:19:11;;;;;;;23.25;9.40;;;;;;;6.82;75.38;102272.81;4938922;28;20054;-78
2021/11/10 11:21:57;;;;;;;21.90;9.75;;;;;;;6.87;75.05;102283.66;4952704;28;20093;-76
2021/11/10 11:24:31;;;;;;;19.52;8.82;;;;;;;6.97;72.85;102271.84;5000225;28;20083;-77